sensor_id;sensor_type;location;lat;lon;timestamp;P1;durP1;ratioP1;P2;durP2;ratioP2
67712;SDS011;54503;55.784;49.138;2023-02-01T00:02:19;49.40;;;14.40;;
67712;SDS011;54503;55.784;49.138;2023-02-01T00:07:40;38.58;;;13.20;;
67712;SDS011;54503;55.784;49.138;2023-02-01T00:13:01;44.35;;;13.85;;
67712;SDS011;54503;55.784;49.138;2023-02-01T00:18:06;50.45;;;15.35;;
67712;SDS011;54503;55.784;49.138;2023-02-01T00:23:25;49.98;;;15.30;;
67712;SDS011;54503;55.784;49.138;2023-02-01T00:28:57;44.75;;;14.15;;
67712;SDS011;54503;55.784;49.138;2023-02-01T00:34:02;51.92;;;15.58;;
67712;SDS011;54503;55.784;49.138;2023-02-01T00:39:08;43.10;;;14.30;;
67712;SDS011;54503;55.784;49.138;2023-02-01T00:44:26;40.80;;;13.95;;
67712;SDS011;54503;55.784;49.138;2023-02-01T00:49:31;38.42;;;13.18;;
67712;SDS011;54503;55.784;49.138;2023-02-01T00:54:56;43.05;;;13.30;;
67712;SDS011;54503;55.784;49.138;2023-02-01T01:00:04;47.33;;;14.67;;
67712;SDS011;54503;55.784;49.138;2023-02-01T01:05:11;46.53;;;14.47;;
67712;SDS011;54503;55.784;49.138;2023-02-01T01:10:30;43.97;;;14.87;;
67712;SDS011;54503;55.784;49.138;2023-02-01T01:15:49;45.45;;;15.32;;
67712;SDS011;54503;55.784;49.138;2023-02-01T01:21:08;47.48;;;14.35;;
67712;SDS011;54503;55.784;49.138;2023-02-01T01:26:15;43.93;;;15.57;;
67712;SDS011;54503;55.784;49.138;2023-02-01T01:31:33;42.65;;;14.07;;
67712;SDS011;54503;55.784;49.138;2023-02-01T01:36:38;47.60;;;15.08;;
67712;SDS011;54503;55.784;49.138;2023-02-01T01:41:44;50.60;;;16.13;;
67712;SDS011;54503;55.784;49.138;2023-02-01T01:47:03;44.38;;;15.00;;
67712;SDS011;54503;55.784;49.138;2023-02-01T01:52:16;44.70;;;14.38;;
67712;SDS011;54503;55.784;49.138;2023-02-01T02:08:40;42.35;;;13.35;;
67712;SDS011;54503;55.784;49.138;2023-02-01T02:14:11;36.40;;;12.45;;
67712;SDS011;54503;55.784;49.138;2023-02-01T02:25:01;34.98;;;11.75;;
67712;SDS011;54503;55.784;49.138;2023-02-01T02:57:45;33.67;;;11.00;;
67712;SDS011;54503;55.784;49.138;2023-02-01T03:03:09;38.13;;;12.10;;
67712;SDS011;54503;55.784;49.138;2023-02-01T03:08:34;34.55;;;11.60;;
67712;SDS011;54503;55.784;49.138;2023-02-01T03:24:26;33.37;;;10.43;;
67712;SDS011;54503;55.784;49.138;2023-02-01T03:29:38;30.75;;;11.60;;
67712;SDS011;54503;55.784;49.138;2023-02-01T03:34:43;31.07;;;10.47;;
67712;SDS011;54503;55.784;49.138;2023-02-01T03:45:41;25.12;;;8.13;;
67712;SDS011;54503;55.784;49.138;2023-02-01T03:50:49;29.95;;;9.93;;
67712;SDS011;54503;55.784;49.138;2023-02-01T03:56:07;34.67;;;11.15;;
67712;SDS011;54503;55.784;49.138;2023-02-01T04:01:12;31.27;;;11.48;;
67712;SDS011;54503;55.784;49.138;2023-02-01T04:06:31;32.67;;;9.17;;
67712;SDS011;54503;55.784;49.138;2023-02-01T04:11:50;37.90;;;11.55;;
67712;SDS011;54503;55.784;49.138;2023-02-01T04:16:55;32.93;;;11.25;;
67712;SDS011;54503;55.784;49.138;2023-02-01T04:22:00;32.83;;;11.45;;
67712;SDS011;54503;55.784;49.138;2023-02-01T04:27:14;31.25;;;10.95;;
67712;SDS011;54503;55.784;49.138;2023-02-01T04:32:33;29.93;;;9.80;;
67712;SDS011;54503;55.784;49.138;2023-02-01T04:37:53;34.60;;;10.28;;
67712;SDS011;54503;55.784;49.138;2023-02-01T04:43:12;33.00;;;10.28;;
67712;SDS011;54503;55.784;49.138;2023-02-01T04:48:29;32.40;;;9.20;;
67712;SDS011;54503;55.784;49.138;2023-02-01T04:53:47;30.63;;;10.73;;
67712;SDS011;54503;55.784;49.138;2023-02-01T04:58:52;34.18;;;10.00;;
67712;SDS011;54503;55.784;49.138;2023-02-01T05:04:11;28.95;;;9.50;;
67712;SDS011;54503;55.784;49.138;2023-02-01T05:09:30;33.95;;;10.93;;
67712;SDS011;54503;55.784;49.138;2023-02-01T05:15:01;34.23;;;10.23;;
67712;SDS011;54503;55.784;49.138;2023-02-01T05:20:08;32.55;;;10.55;;
67712;SDS011;54503;55.784;49.138;2023-02-01T05:25:39;33.10;;;10.28;;
67712;SDS011;54503;55.784;49.138;2023-02-01T05:30:44;31.73;;;11.45;;
67712;SDS011;54503;55.784;49.138;2023-02-01T05:36:10;30.25;;;9.33;;
67712;SDS011;54503;55.784;49.138;2023-02-01T05:41:16;27.58;;;9.78;;
67712;SDS011;54503;55.784;49.138;2023-02-01T05:46:35;35.17;;;10.50;;
67712;SDS011;54503;55.784;49.138;2023-02-01T05:52:08;33.98;;;11.30;;
67712;SDS011;54503;55.784;49.138;2023-02-01T05:57:14;29.90;;;9.18;;
67712;SDS011;54503;55.784;49.138;2023-02-01T06:02:33;33.90;;;10.13;;
67712;SDS011;54503;55.784;49.138;2023-02-01T06:07:52;29.15;;;10.50;;
67712;SDS011;54503;55.784;49.138;2023-02-01T06:13:11;33.48;;;10.68;;
67712;SDS011;54503;55.784;49.138;2023-02-01T06:18:30;36.60;;;10.00;;
67712;SDS011;54503;55.784;49.138;2023-02-01T06:23:35;26.37;;;9.25;;
67712;SDS011;54503;55.784;49.138;2023-02-01T06:28:41;28.53;;;9.97;;
67712;SDS011;54503;55.784;49.138;2023-02-01T06:34:17;28.63;;;9.70;;
67712;SDS011;54503;55.784;49.138;2023-02-01T06:39:21;28.73;;;9.25;;
67712;SDS011;54503;55.784;49.138;2023-02-01T06:44:25;30.47;;;9.70;;
67712;SDS011;54503;55.784;49.138;2023-02-01T06:49:29;27.32;;;8.73;;
67712;SDS011;54503;55.784;49.138;2023-02-01T06:54:48;27.22;;;8.85;;
67712;SDS011;54503;55.784;49.138;2023-02-01T07:00:10;22.07;;;6.93;;
67712;SDS011;54503;55.784;49.138;2023-02-01T07:05:29;28.30;;;8.95;;
67712;SDS011;54503;55.784;49.138;2023-02-01T07:10:33;23.80;;;7.90;;
67712;SDS011;54503;55.784;49.138;2023-02-01T07:15:38;25.70;;;8.45;;
67712;SDS011;54503;55.784;49.138;2023-02-01T07:20:55;30.80;;;8.40;;
67712;SDS011;54503;55.784;49.138;2023-02-01T07:26:01;26.30;;;9.33;;
67712;SDS011;54503;55.784;49.138;2023-02-01T07:36:46;26.75;;;8.38;;
67712;SDS011;54503;55.784;49.138;2023-02-01T07:42:05;24.83;;;9.33;;
67712;SDS011;54503;55.784;49.138;2023-02-01T07:47:33;29.10;;;8.47;;
67712;SDS011;54503;55.784;49.138;2023-02-01T07:52:39;27.15;;;8.88;;
67712;SDS011;54503;55.784;49.138;2023-02-01T07:57:58;29.13;;;8.87;;
67712;SDS011;54503;55.784;49.138;2023-02-01T08:03:17;25.40;;;8.53;;
67712;SDS011;54503;55.784;49.138;2023-02-01T08:08:36;23.30;;;8.10;;
67712;SDS011;54503;55.784;49.138;2023-02-01T08:13:41;23.27;;;7.10;;
67712;SDS011;54503;55.784;49.138;2023-02-01T08:18:46;24.25;;;8.85;;
67712;SDS011;54503;55.784;49.138;2023-02-01T08:24:04;21.87;;;7.45;;
67712;SDS011;54503;55.784;49.138;2023-02-01T08:29:09;23.93;;;7.97;;
67712;SDS011;54503;55.784;49.138;2023-02-01T08:34:15;20.60;;;7.70;;
67712;SDS011;54503;55.784;49.138;2023-02-01T08:39:34;25.85;;;8.30;;
67712;SDS011;54503;55.784;49.138;2023-02-01T08:44:53;23.10;;;7.72;;
67712;SDS011;54503;55.784;49.138;2023-02-01T08:50:13;24.25;;;8.10;;
67712;SDS011;54503;55.784;49.138;2023-02-01T08:55:19;19.20;;;7.00;;
67712;SDS011;54503;55.784;49.138;2023-02-01T09:00:25;24.37;;;7.95;;
67712;SDS011;54503;55.784;49.138;2023-02-01T09:05:30;18.98;;;5.92;;
67712;SDS011;54503;55.784;49.138;2023-02-01T09:10:49;22.42;;;7.70;;
67712;SDS011;54503;55.784;49.138;2023-02-01T09:15:59;26.12;;;7.72;;
67712;SDS011;54503;55.784;49.138;2023-02-01T09:21:17;22.15;;;6.97;;
67712;SDS011;54503;55.784;49.138;2023-02-01T09:26:22;28.00;;;9.40;;
67712;SDS011;54503;55.784;49.138;2023-02-01T09:31:42;25.10;;;8.28;;
67712;SDS011;54503;55.784;49.138;2023-02-01T09:36:47;28.02;;;7.37;;
67712;SDS011;54503;55.784;49.138;2023-02-01T09:47:31;21.00;;;7.08;;
67712;SDS011;54503;55.784;49.138;2023-02-01T10:14:46;21.45;;;7.37;;
67712;SDS011;54503;55.784;49.138;2023-02-01T10:25:17;24.23;;;6.97;;
67712;SDS011;54503;55.784;49.138;2023-02-01T10:30:40;32.93;;;7.47;;
67712;SDS011;54503;55.784;49.138;2023-02-01T10:41:44;21.35;;;6.67;;
67712;SDS011;54503;55.784;49.138;2023-02-01T10:47:09;30.50;;;7.17;;
67712;SDS011;54503;55.784;49.138;2023-02-01T11:25:27;16.77;;;5.60;;
67712;SDS011;54503;55.784;49.138;2023-02-01T11:30:46;19.15;;;6.53;;
67712;SDS011;54503;55.784;49.138;2023-02-01T11:41:31;19.60;;;6.78;;
67712;SDS011;54503;55.784;49.138;2023-02-01T11:46:50;19.02;;;5.85;;
67712;SDS011;54503;55.784;49.138;2023-02-01T12:46:56;22.62;;;6.60;;
67712;SDS011;54503;55.784;49.138;2023-02-01T12:52:17;25.43;;;7.42;;
67712;SDS011;54503;55.784;49.138;2023-02-01T13:09:00;35.20;;;7.12;;
67712;SDS011;54503;55.784;49.138;2023-02-01T13:41:32;23.60;;;7.25;;
67712;SDS011;54503;55.784;49.138;2023-02-01T13:46:53;21.33;;;6.30;;
67712;SDS011;54503;55.784;49.138;2023-02-01T13:51:59;18.30;;;6.20;;
67712;SDS011;54503;55.784;49.138;2023-02-01T14:08:25;22.65;;;7.20;;
67712;SDS011;54503;55.784;49.138;2023-02-01T14:13:42;18.20;;;6.08;;
67712;SDS011;54503;55.784;49.138;2023-02-01T14:40:37;18.77;;;5.78;;
67712;SDS011;54503;55.784;49.138;2023-02-01T14:45:56;21.95;;;5.85;;
67712;SDS011;54503;55.784;49.138;2023-02-01T14:51:15;17.97;;;5.60;;
67712;SDS011;54503;55.784;49.138;2023-02-01T15:01:56;20.63;;;6.27;;
67712;SDS011;54503;55.784;49.138;2023-02-01T15:12:28;16.80;;;4.85;;
67712;SDS011;54503;55.784;49.138;2023-02-01T15:17:33;17.53;;;5.23;;
67712;SDS011;54503;55.784;49.138;2023-02-01T15:22:53;11.93;;;4.75;;
67712;SDS011;54503;55.784;49.138;2023-02-01T15:28:13;10.20;;;3.37;;
67712;SDS011;54503;55.784;49.138;2023-02-01T15:33:18;15.15;;;4.30;;
67712;SDS011;54503;55.784;49.138;2023-02-01T15:54:48;15.05;;;4.62;;
67712;SDS011;54503;55.784;49.138;2023-02-01T16:00:17;15.63;;;4.43;;
67712;SDS011;54503;55.784;49.138;2023-02-01T16:16:31;11.15;;;3.52;;
67712;SDS011;54503;55.784;49.138;2023-02-01T16:21:36;10.65;;;3.83;;
67712;SDS011;54503;55.784;49.138;2023-02-01T16:26:55;11.87;;;3.23;;
67712;SDS011;54503;55.784;49.138;2023-02-01T16:37:34;12.15;;;3.65;;
67712;SDS011;54503;55.784;49.138;2023-02-01T16:42:39;12.60;;;3.97;;
67712;SDS011;54503;55.784;49.138;2023-02-01T16:47:58;12.70;;;3.55;;
67712;SDS011;54503;55.784;49.138;2023-02-01T16:53:18;20.25;;;3.33;;
67712;SDS011;54503;55.784;49.138;2023-02-01T16:58:37;11.37;;;3.50;;
67712;SDS011;54503;55.784;49.138;2023-02-01T17:03:56;15.05;;;4.35;;
67712;SDS011;54503;55.784;49.138;2023-02-01T17:09:01;13.70;;;3.30;;
67712;SDS011;54503;55.784;49.138;2023-02-01T17:14:19;10.37;;;3.27;;
67712;SDS011;54503;55.784;49.138;2023-02-01T17:19:24;12.00;;;3.20;;
67712;SDS011;54503;55.784;49.138;2023-02-01T17:24:43;10.05;;;3.17;;
67712;SDS011;54503;55.784;49.138;2023-02-01T17:30:06;9.63;;;3.43;;
67712;SDS011;54503;55.784;49.138;2023-02-01T17:40:38;12.68;;;3.90;;
67712;SDS011;54503;55.784;49.138;2023-02-01T17:51:24;11.38;;;3.52;;
67712;SDS011;54503;55.784;49.138;2023-02-01T17:56:29;17.95;;;3.65;;
67712;SDS011;54503;55.784;49.138;2023-02-01T18:01:48;14.00;;;3.07;;
67712;SDS011;54503;55.784;49.138;2023-02-01T18:07:07;9.08;;;2.95;;
67712;SDS011;54503;55.784;49.138;2023-02-01T18:12:26;9.90;;;3.60;;
67712;SDS011;54503;55.784;49.138;2023-02-01T18:17:55;12.73;;;2.80;;
67712;SDS011;54503;55.784;49.138;2023-02-01T18:23:01;7.55;;;2.50;;
67712;SDS011;54503;55.784;49.138;2023-02-01T18:28:22;8.90;;;2.83;;
67712;SDS011;54503;55.784;49.138;2023-02-01T18:33:47;8.43;;;2.50;;
67712;SDS011;54503;55.784;49.138;2023-02-01T18:39:11;8.08;;;2.10;;
67712;SDS011;54503;55.784;49.138;2023-02-01T18:44:16;9.35;;;2.75;;
67712;SDS011;54503;55.784;49.138;2023-02-01T18:49:44;9.60;;;2.42;;
67712;SDS011;54503;55.784;49.138;2023-02-01T18:54:49;8.60;;;2.50;;
67712;SDS011;54503;55.784;49.138;2023-02-01T18:59:55;9.40;;;2.60;;
67712;SDS011;54503;55.784;49.138;2023-02-01T19:05:27;8.58;;;2.30;;
67712;SDS011;54503;55.784;49.138;2023-02-01T19:10:32;8.93;;;2.57;;
67712;SDS011;54503;55.784;49.138;2023-02-01T19:15:38;6.25;;;2.12;;
67712;SDS011;54503;55.784;49.138;2023-02-01T19:21:01;8.15;;;1.92;;
67712;SDS011;54503;55.784;49.138;2023-02-01T19:26:18;7.10;;;1.30;;
67712;SDS011;54503;55.784;49.138;2023-02-01T19:31:42;7.90;;;2.47;;
67712;SDS011;54503;55.784;49.138;2023-02-01T19:37:14;6.37;;;2.27;;
67712;SDS011;54503;55.784;49.138;2023-02-01T19:42:19;9.00;;;2.27;;
67712;SDS011;54503;55.784;49.138;2023-02-01T19:47:38;8.63;;;2.25;;
67712;SDS011;54503;55.784;49.138;2023-02-01T19:52:57;15.33;;;2.47;;
67712;SDS011;54503;55.784;49.138;2023-02-01T19:58:16;12.13;;;2.75;;
67712;SDS011;54503;55.784;49.138;2023-02-01T20:03:23;8.18;;;2.35;;
67712;SDS011;54503;55.784;49.138;2023-02-01T20:08:28;7.40;;;2.37;;
67712;SDS011;54503;55.784;49.138;2023-02-01T20:13:33;8.13;;;2.20;;
67712;SDS011;54503;55.784;49.138;2023-02-01T20:18:52;7.33;;;2.13;;
67712;SDS011;54503;55.784;49.138;2023-02-01T20:24:41;11.47;;;2.53;;
67712;SDS011;54503;55.784;49.138;2023-02-01T20:29:35;7.85;;;2.05;;
67712;SDS011;54503;55.784;49.138;2023-02-01T20:34:54;8.00;;;2.25;;
67712;SDS011;54503;55.784;49.138;2023-02-01T20:39:59;5.30;;;1.75;;
67712;SDS011;54503;55.784;49.138;2023-02-01T20:45:18;7.53;;;2.12;;
67712;SDS011;54503;55.784;49.138;2023-02-01T20:50:37;6.53;;;2.17;;
67712;SDS011;54503;55.784;49.138;2023-02-01T20:55:56;7.80;;;2.27;;
67712;SDS011;54503;55.784;49.138;2023-02-01T21:01:16;9.95;;;2.30;;
67712;SDS011;54503;55.784;49.138;2023-02-01T21:06:41;6.92;;;2.12;;
67712;SDS011;54503;55.784;49.138;2023-02-01T21:12:00;7.22;;;2.42;;
67712;SDS011;54503;55.784;49.138;2023-02-01T21:17:05;6.13;;;2.10;;
67712;SDS011;54503;55.784;49.138;2023-02-01T21:22:24;6.95;;;2.30;;
67712;SDS011;54503;55.784;49.138;2023-02-01T21:27:55;6.90;;;1.92;;
67712;SDS011;54503;55.784;49.138;2023-02-01T21:33:00;7.73;;;1.97;;
67712;SDS011;54503;55.784;49.138;2023-02-01T21:38:30;5.87;;;1.80;;
67712;SDS011;54503;55.784;49.138;2023-02-01T21:43:35;7.42;;;2.10;;
67712;SDS011;54503;55.784;49.138;2023-02-01T21:48:54;7.37;;;2.25;;
67712;SDS011;54503;55.784;49.138;2023-02-01T21:54:00;7.42;;;2.58;;
67712;SDS011;54503;55.784;49.138;2023-02-01T21:59:19;9.05;;;2.55;;
67712;SDS011;54503;55.784;49.138;2023-02-01T22:04:49;7.25;;;2.10;;
67712;SDS011;54503;55.784;49.138;2023-02-01T22:09:54;7.43;;;1.77;;
67712;SDS011;54503;55.784;49.138;2023-02-01T22:15:19;6.78;;;2.17;;
67712;SDS011;54503;55.784;49.138;2023-02-01T22:20:23;7.33;;;2.15;;
67712;SDS011;54503;55.784;49.138;2023-02-01T22:25:29;6.10;;;2.07;;
67712;SDS011;54503;55.784;49.138;2023-02-01T22:31:01;7.53;;;2.23;;
67712;SDS011;54503;55.784;49.138;2023-02-01T22:36:07;9.95;;;2.40;;
67712;SDS011;54503;55.784;49.138;2023-02-01T22:41:26;5.90;;;1.63;;
67712;SDS011;54503;55.784;49.138;2023-02-01T22:46:49;9.20;;;2.47;;
67712;SDS011;54503;55.784;49.138;2023-02-01T22:51:54;7.33;;;2.12;;
67712;SDS011;54503;55.784;49.138;2023-02-01T22:57:13;6.28;;;1.90;;
67712;SDS011;54503;55.784;49.138;2023-02-01T23:02:32;6.12;;;2.05;;
67712;SDS011;54503;55.784;49.138;2023-02-01T23:07:51;7.20;;;2.00;;
67712;SDS011;54503;55.784;49.138;2023-02-01T23:13:10;6.73;;;1.60;;
67712;SDS011;54503;55.784;49.138;2023-02-01T23:18:15;6.47;;;1.82;;
67712;SDS011;54503;55.784;49.138;2023-02-01T23:23:33;8.08;;;2.30;;
67712;SDS011;54503;55.784;49.138;2023-02-01T23:28:38;5.83;;;1.70;;
67712;SDS011;54503;55.784;49.138;2023-02-01T23:33:44;7.08;;;2.17;;
67712;SDS011;54503;55.784;49.138;2023-02-01T23:39:03;7.28;;;2.70;;
67712;SDS011;54503;55.784;49.138;2023-02-01T23:44:22;7.55;;;2.17;;
67712;SDS011;54503;55.784;49.138;2023-02-01T23:49:27;10.05;;;2.25;;
67712;SDS011;54503;55.784;49.138;2023-02-01T23:54:46;11.18;;;2.35;;
